createdAt,value
2022-12-28T00:00:52.951Z,5.60
2022-12-28T00:01:56.386Z,5.07
2022-12-28T00:02:59.313Z,6.28
2022-12-28T00:04:05.956Z,5.47
2022-12-28T00:05:09.368Z,5.22
2022-12-28T00:06:13.514Z,5.30
2022-12-28T00:07:16.059Z,5.55
2022-12-28T00:08:19.459Z,5.35
2022-12-28T00:09:21.754Z,5.97
2022-12-28T00:11:07.716Z,5.00
2022-12-28T00:11:47.393Z,5.43
2022-12-28T00:12:50.710Z,5.03
2022-12-28T00:13:53.004Z,5.28
2022-12-28T00:14:56.528Z,5.72
2022-12-28T00:15:59.164Z,5.65
2022-12-28T00:17:02.964Z,5.72
2022-12-28T00:18:05.361Z,6.18
2022-12-28T00:19:14.251Z,6.15
2022-12-28T00:20:16.835Z,6.17
2022-12-28T00:21:20.268Z,5.68
2022-12-28T00:22:23.019Z,5.55
2022-12-28T00:23:26.877Z,5.45
2022-12-28T00:24:29.240Z,6.57
2022-12-28T00:25:32.622Z,5.22
2022-12-28T00:26:36.226Z,5.93
2022-12-28T00:27:40.023Z,6.15
2022-12-28T00:28:42.286Z,5.82
2022-12-28T00:29:46.018Z,5.30
2022-12-28T00:30:48.649Z,6.10
2022-12-28T00:31:52.057Z,6.00
2022-12-28T00:32:54.499Z,5.72
2022-12-28T00:33:57.963Z,5.53
2022-12-28T00:35:02.640Z,5.60
2022-12-28T00:36:05.449Z,5.32
2022-12-28T00:37:12.935Z,5.28
2022-12-28T00:38:15.788Z,5.50
2022-12-28T00:39:19.310Z,6.07
2022-12-28T00:40:24.261Z,5.80
2022-12-28T00:41:26.855Z,5.87
2022-12-28T00:42:30.346Z,6.10
2022-12-28T00:43:33.053Z,7.15
2022-12-28T00:44:36.424Z,6.30
2022-12-28T00:45:39.304Z,6.60
2022-12-28T00:46:42.920Z,5.63
2022-12-28T00:47:45.429Z,5.55
2022-12-28T00:48:48.874Z,6.30
2022-12-28T00:49:51.230Z,6.38
2022-12-28T00:51:03.293Z,6.43
2022-12-28T00:52:05.846Z,6.50
2022-12-28T00:53:09.262Z,6.80
2022-12-28T00:54:11.640Z,6.50
2022-12-28T00:55:15.012Z,6.30
2022-12-28T00:56:19.223Z,6.60
2022-12-28T00:57:22.593Z,5.95
2022-12-28T00:58:24.869Z,5.20
2022-12-28T00:59:28.727Z,5.75
2022-12-28T01:00:32.039Z,5.75
2022-12-28T01:01:35.690Z,6.03
2022-12-28T01:02:38.426Z,5.20
2022-12-28T01:03:41.908Z,5.45
2022-12-28T01:04:44.258Z,6.63
2022-12-28T01:05:47.631Z,6.30
2022-12-28T01:06:51.530Z,5.88
2022-12-28T01:07:54.956Z,6.13
2022-12-28T01:08:57.247Z,5.63
2022-12-28T01:10:00.677Z,5.40
2022-12-28T01:11:08.424Z,5.38
2022-12-28T01:12:11.862Z,5.97
2022-12-28T01:13:14.495Z,6.53
2022-12-28T01:14:17.955Z,5.43
2022-12-28T01:15:20.768Z,5.68
2022-12-28T01:16:26.672Z,5.43
2022-12-28T01:17:30.062Z,5.57
2022-12-28T01:18:33.390Z,6.07
2022-12-28T01:19:36.533Z,6.05
2022-12-28T01:20:40.990Z,5.55
2022-12-28T01:21:43.231Z,5.30
2022-12-28T01:22:48.042Z,6.32
2022-12-28T01:23:53.552Z,6.03
2022-12-28T01:24:56.916Z,5.20
2022-12-28T01:26:02.181Z,5.13
2022-12-28T01:27:05.683Z,4.90
2022-12-28T01:28:08.127Z,4.60
2022-12-28T01:29:11.602Z,5.80
2022-12-28T01:30:14.729Z,4.53
2022-12-28T01:31:20.308Z,4.85
2022-12-28T01:32:22.790Z,5.00
2022-12-28T01:33:26.142Z,4.30
2022-12-28T01:34:28.449Z,4.77
2022-12-28T01:35:31.823Z,4.80
2022-12-28T01:36:35.171Z,4.97
2022-12-28T01:37:38.400Z,4.45
2022-12-28T01:38:42.932Z,4.70
2022-12-28T01:39:46.213Z,4.57
2022-12-28T01:40:48.616Z,4.75
2022-12-28T01:41:52.045Z,4.53
2022-12-28T01:42:54.355Z,4.45
2022-12-28T01:44:35.009Z,4.45
2022-12-28T01:45:37.480Z,4.33
2022-12-28T01:46:43.900Z,4.10
2022-12-28T01:47:49.558Z,4.13
2022-12-28T01:48:57.741Z,5.05
2022-12-28T01:50:07.128Z,3.90
2022-12-28T01:51:09.432Z,4.10
2022-12-28T01:52:16.803Z,4.53
2022-12-28T01:53:20.905Z,4.32
2022-12-28T01:54:28.468Z,4.32
2022-12-28T01:55:33.762Z,4.30
2022-12-28T01:56:38.058Z,4.90
2022-12-28T01:57:43.829Z,5.28
2022-12-28T01:58:48.103Z,4.95
2022-12-28T01:59:54.906Z,4.45
2022-12-28T02:00:58.890Z,4.22
2022-12-28T02:02:01.728Z,4.63
2022-12-28T02:03:09.056Z,5.40
2022-12-28T02:04:12.079Z,5.82
2022-12-28T02:05:16.864Z,5.25
2022-12-28T02:06:20.438Z,4.78
2022-12-28T02:07:37.425Z,4.30
2022-12-28T02:08:44.072Z,4.40
2022-12-28T02:10:44.412Z,4.95
2022-12-28T02:11:16.247Z,4.93
2022-12-28T02:12:19.802Z,4.75
2022-12-28T02:13:25.139Z,4.28
2022-12-28T02:14:27.749Z,5.30
2022-12-28T02:15:31.290Z,5.53
2022-12-28T02:16:33.902Z,5.45
2022-12-28T02:17:37.627Z,4.72
2022-12-28T02:18:42.985Z,5.30
2022-12-28T02:19:50.393Z,4.57
2022-12-28T02:21:17.739Z,4.72
2022-12-28T02:22:50.338Z,4.53
2022-12-28T02:24:28.966Z,5.45
2022-12-28T02:26:05.020Z,4.28
2022-12-28T02:27:19.594Z,4.60
2022-12-28T02:28:46.009Z,5.30
2022-12-28T02:30:08.973Z,4.68
2022-12-28T02:31:18.007Z,3.83
2022-12-28T02:32:35.198Z,4.23
2022-12-28T02:33:44.615Z,4.53
2022-12-28T02:34:54.742Z,4.40
2022-12-28T02:36:01.296Z,4.75
2022-12-28T02:37:11.777Z,4.28
2022-12-28T02:38:19.866Z,4.03
2022-12-28T02:39:27.510Z,3.85
2022-12-28T02:40:35.757Z,4.13
2022-12-28T02:41:41.408Z,4.43
2022-12-28T02:42:46.717Z,4.32
2022-12-28T02:43:50.767Z,4.30
2022-12-28T02:45:13.059Z,3.88
2022-12-28T02:46:38.695Z,4.43
2022-12-28T02:48:02.056Z,5.18
2022-12-28T02:49:51.520Z,4.05
2022-12-28T02:51:07.050Z,4.38
2022-12-28T02:52:18.703Z,3.83
2022-12-28T02:53:38.695Z,4.30
2022-12-28T02:55:27.937Z,3.60
2022-12-28T02:56:40.515Z,3.65
2022-12-28T02:58:01.640Z,3.60
2022-12-28T02:59:24.250Z,3.47
2022-12-28T03:00:35.325Z,3.90
2022-12-28T03:02:08.925Z,3.83
2022-12-28T03:03:21.861Z,3.60
2022-12-28T03:04:31.028Z,3.70
2022-12-28T03:05:57.998Z,4.15
2022-12-28T03:07:28.101Z,3.72
2022-12-28T03:08:38.717Z,3.90
2022-12-28T03:09:48.135Z,3.50
2022-12-28T03:10:56.417Z,3.67
2022-12-28T03:12:07.617Z,3.63
2022-12-28T03:13:28.708Z,3.33
2022-12-28T03:14:37.610Z,3.78
2022-12-28T03:15:41.585Z,3.60
2022-12-28T03:17:08.823Z,3.00
2022-12-28T03:18:33.956Z,3.28
2022-12-28T03:19:58.399Z,5.05
2022-12-28T03:21:23.654Z,3.20
2022-12-28T03:22:49.157Z,3.15
2022-12-28T03:24:11.529Z,3.37
2022-12-28T03:25:37.869Z,3.67
2022-12-28T03:27:03.817Z,3.17
2022-12-28T03:28:27.830Z,3.20
2022-12-28T03:29:53.085Z,3.88
2022-12-28T03:31:06.936Z,2.90
2022-12-28T03:32:10.308Z,3.40
2022-12-28T03:33:14.541Z,3.72
2022-12-28T03:34:17.622Z,3.45
2022-12-28T03:35:24.883Z,3.17
2022-12-28T03:36:32.138Z,3.30
2022-12-28T03:37:42.173Z,3.08
2022-12-28T03:38:53.420Z,3.60
2022-12-28T03:40:01.696Z,3.63
2022-12-28T03:41:08.304Z,2.63
2022-12-28T03:42:34.906Z,3.20
2022-12-28T03:43:47.214Z,3.25
2022-12-28T03:44:56.842Z,3.10
2022-12-28T03:46:06.091Z,3.05
2022-12-28T03:47:11.465Z,3.45
2022-12-28T03:48:16.528Z,3.63
2022-12-28T03:49:19.547Z,3.28
2022-12-28T03:50:24.375Z,3.42
2022-12-28T03:51:31.247Z,3.70
2022-12-28T03:52:34.941Z,3.47
2022-12-28T03:53:41.487Z,3.55
2022-12-28T03:54:45.755Z,3.15
2022-12-28T03:55:48.187Z,3.10
2022-12-28T03:56:53.361Z,3.90
2022-12-28T03:57:56.872Z,3.38
2022-12-28T03:59:00.541Z,3.30
2022-12-28T04:00:04.095Z,2.83
2022-12-28T04:01:09.306Z,3.00
2022-12-28T04:02:12.068Z,3.53
2022-12-28T04:03:15.715Z,3.53
2022-12-28T04:04:18.383Z,2.83
2022-12-28T04:05:22.294Z,3.45
2022-12-28T04:06:24.815Z,3.50
2022-12-28T04:07:29.487Z,3.78
2022-12-28T04:08:32.972Z,3.35
2022-12-28T04:09:36.237Z,3.20
2022-12-28T04:10:38.978Z,3.63
2022-12-28T04:11:42.808Z,3.30
2022-12-28T04:12:45.543Z,3.20
2022-12-28T04:13:49.067Z,3.28
2022-12-28T04:14:51.459Z,3.28
2022-12-28T04:15:59.879Z,3.40
2022-12-28T04:17:03.664Z,3.40
2022-12-28T04:18:07.001Z,2.85
2022-12-28T04:19:10.520Z,3.40
2022-12-28T04:20:14.098Z,3.90
2022-12-28T04:21:16.674Z,3.35
2022-12-28T04:22:19.962Z,3.17
2022-12-28T04:23:22.417Z,3.42
2022-12-28T04:24:26.914Z,3.78
2022-12-28T04:25:29.280Z,3.85
2022-12-28T04:26:32.734Z,3.55
2022-12-28T04:27:35.560Z,3.63
2022-12-28T04:28:39.511Z,4.10
2022-12-28T04:29:41.827Z,3.90
2022-12-28T04:30:46.721Z,3.30
2022-12-28T04:31:50.116Z,3.20
2022-12-28T04:32:55.759Z,3.47
2022-12-28T04:33:59.509Z,3.42
2022-12-28T04:35:02.002Z,3.50
2022-12-28T04:36:07.124Z,3.50
2022-12-28T04:37:09.531Z,3.58
2022-12-28T04:38:12.950Z,3.30
2022-12-28T04:39:15.261Z,3.42
2022-12-28T04:40:18.719Z,4.32
2022-12-28T04:41:21.178Z,3.13
2022-12-28T04:42:25.399Z,3.65
2022-12-28T04:43:27.851Z,3.47
2022-12-28T04:44:32.407Z,3.28
2022-12-28T04:45:35.195Z,4.03
2022-12-28T04:46:39.076Z,3.15
2022-12-28T04:47:41.635Z,3.55
2022-12-28T04:48:46.558Z,3.17
2022-12-28T04:49:48.985Z,3.15
2022-12-28T04:50:52.783Z,3.13
2022-12-28T04:51:55.453Z,2.90
2022-12-28T04:53:00.494Z,3.22
2022-12-28T04:54:03.465Z,3.30
2022-12-28T04:55:07.381Z,3.13
2022-12-28T04:56:30.848Z,3.10
2022-12-28T04:57:33.481Z,3.20
2022-12-28T04:58:37.602Z,3.50
2022-12-28T04:59:40.636Z,3.42
2022-12-28T05:00:44.191Z,3.75
2022-12-28T05:01:46.818Z,4.43
2022-12-28T05:02:50.294Z,3.43
2022-12-28T05:03:58.063Z,3.47
2022-12-28T05:05:03.320Z,2.85
2022-12-28T05:06:08.403Z,3.10
2022-12-28T05:07:11.930Z,3.05
2022-12-28T05:08:14.307Z,2.80
2022-12-28T05:09:19.550Z,3.63
2022-12-28T05:10:22.245Z,3.15
2022-12-28T05:11:27.722Z,3.15
2022-12-28T05:12:30.095Z,3.22
2022-12-28T05:13:33.868Z,3.27
2022-12-28T05:14:37.384Z,3.90
2022-12-28T05:15:40.933Z,3.13
2022-12-28T05:16:43.494Z,3.08
2022-12-28T05:17:48.724Z,3.10
2022-12-28T05:18:51.255Z,2.90
2022-12-28T05:19:56.397Z,3.42
2022-12-28T05:21:00.662Z,2.78
2022-12-28T05:22:04.478Z,3.58
2022-12-28T05:23:07.263Z,2.80
2022-12-28T05:24:10.953Z,2.80
2022-12-28T05:25:13.293Z,3.38
2022-12-28T05:26:19.072Z,2.58
2022-12-28T05:27:21.509Z,3.22
2022-12-28T05:28:25.743Z,2.50
2022-12-28T05:29:28.220Z,2.40
2022-12-28T05:30:31.954Z,2.50
2022-12-28T05:31:34.367Z,2.83
2022-12-28T05:32:37.805Z,2.70
2022-12-28T05:33:40.498Z,2.83
2022-12-28T05:34:43.963Z,2.40
2022-12-28T05:35:47.870Z,2.38
2022-12-28T05:36:51.340Z,2.53
2022-12-28T05:37:53.690Z,2.50
2022-12-28T05:38:58.129Z,2.33
2022-12-28T05:40:01.836Z,2.50
2022-12-28T05:41:07.199Z,2.85
2022-12-28T05:42:09.612Z,2.42
2022-12-28T05:43:13.056Z,2.63
2022-12-28T05:44:16.777Z,2.50
2022-12-28T05:45:19.408Z,2.47
2022-12-28T05:46:25.629Z,2.47
2022-12-28T05:47:29.374Z,2.80
2022-12-28T05:48:33.010Z,2.90
2022-12-28T05:49:36.572Z,2.83
2022-12-28T05:50:39.178Z,2.80
2022-12-28T05:51:44.265Z,2.70
2022-12-28T05:52:47.129Z,2.53
2022-12-28T05:53:50.807Z,2.47
2022-12-28T05:54:53.355Z,2.72
2022-12-28T05:56:02.167Z,2.73
2022-12-28T05:57:05.989Z,2.88
2022-12-28T05:58:09.710Z,2.63
2022-12-28T05:59:14.575Z,2.80
2022-12-28T06:00:17.641Z,2.42
2022-12-28T06:01:25.331Z,2.40
2022-12-28T06:02:29.253Z,2.97
2022-12-28T06:03:31.964Z,2.92
2022-12-28T06:04:35.719Z,2.97
2022-12-28T06:05:38.046Z,2.83
2022-12-28T06:06:41.480Z,3.03
2022-12-28T06:07:45.265Z,3.20
2022-12-28T06:08:50.194Z,2.88
2022-12-28T06:09:53.521Z,3.47
2022-12-28T06:11:00.123Z,3.83
2022-12-28T06:12:04.914Z,3.15
2022-12-28T06:13:07.365Z,3.00
2022-12-28T06:14:11.101Z,4.00
2022-12-28T06:15:13.474Z,2.97
2022-12-28T06:16:18.907Z,3.25
2022-12-28T06:17:21.691Z,3.13
2022-12-28T06:18:25.457Z,2.78
2022-12-28T06:19:28.141Z,2.80
2022-12-28T06:20:31.717Z,3.08
2022-12-28T06:21:36.104Z,3.58
2022-12-28T06:22:39.605Z,2.10
2022-12-28T06:23:44.097Z,3.17
2022-12-28T06:24:47.596Z,2.90
2022-12-28T06:25:49.962Z,2.95
2022-12-28T06:26:53.449Z,3.05
2022-12-28T06:27:55.737Z,3.00
2022-12-28T06:28:59.516Z,2.90
2022-12-28T06:30:01.868Z,3.08
2022-12-28T06:31:06.828Z,2.78
2022-12-28T06:32:10.391Z,3.20
2022-12-28T06:33:13.191Z,2.92
2022-12-28T06:34:16.628Z,2.40
2022-12-28T06:35:19.359Z,2.50
2022-12-28T06:36:25.216Z,2.83
2022-12-28T06:37:27.672Z,2.70
2022-12-28T06:38:34.666Z,2.70
2022-12-28T06:39:38.413Z,2.70
2022-12-28T06:41:12.439Z,2.60
2022-12-28T06:42:06.004Z,2.80
2022-12-28T06:43:08.488Z,3.20
2022-12-28T06:44:14.246Z,2.65
2022-12-28T06:45:16.941Z,2.45
2022-12-28T06:46:22.667Z,2.45
2022-12-28T06:47:26.221Z,3.67
2022-12-28T06:48:30.357Z,3.10
2022-12-28T06:49:33.985Z,3.33
2022-12-28T06:50:40.082Z,3.03
2022-12-28T06:51:43.682Z,3.17
2022-12-28T06:52:46.238Z,3.10
2022-12-28T06:53:51.183Z,3.25
2022-12-28T06:54:55.071Z,3.00
2022-12-28T06:55:59.921Z,3.17
2022-12-28T06:57:02.351Z,3.50
2022-12-28T06:58:05.962Z,3.55
2022-12-28T06:59:08.593Z,3.70
2022-12-28T07:00:13.548Z,3.20
2022-12-28T07:01:18.158Z,2.83
2022-12-28T07:02:22.123Z,3.58
2022-12-28T07:03:25.421Z,3.17
2022-12-28T07:04:28.922Z,2.85
2022-12-28T07:05:32.301Z,2.90
2022-12-28T07:06:38.569Z,3.30
2022-12-28T07:07:40.939Z,3.92
2022-12-28T07:08:44.872Z,2.85
2022-12-28T07:09:48.335Z,2.78
2022-12-28T07:10:52.408Z,3.20
2022-12-28T07:11:55.830Z,3.22
2022-12-28T07:12:58.130Z,3.40
2022-12-28T07:14:01.640Z,3.70
2022-12-28T07:15:04.435Z,3.55
2022-12-28T07:16:11.305Z,3.30
2022-12-28T07:17:14.806Z,3.70
2022-12-28T07:18:17.193Z,3.58
2022-12-28T07:19:20.809Z,3.30
2022-12-28T07:20:23.554Z,3.20
2022-12-28T07:21:28.373Z,3.60
2022-12-28T07:22:30.878Z,3.75
2022-12-28T07:23:34.924Z,3.15
2022-12-28T07:24:39.446Z,3.50
2022-12-28T07:25:41.820Z,2.75
2022-12-28T07:26:46.596Z,3.25
2022-12-28T07:27:49.001Z,4.20
2022-12-28T07:28:54.730Z,4.25
2022-12-28T07:29:58.117Z,4.93
2022-12-28T07:31:06.082Z,3.90
2022-12-28T07:32:09.830Z,3.87
2022-12-28T07:33:12.346Z,3.70
2022-12-28T07:34:17.508Z,4.20
2022-12-28T07:35:19.855Z,3.83
2022-12-28T07:36:25.027Z,3.85
2022-12-28T07:37:28.552Z,3.85
2022-12-28T07:38:31.148Z,3.75
2022-12-28T07:39:35.325Z,3.90
2022-12-28T07:40:37.869Z,4.05
2022-12-28T07:41:41.280Z,4.38
2022-12-28T07:42:45.207Z,4.80
2022-12-28T07:43:49.323Z,5.60
2022-12-28T07:44:52.746Z,4.80
2022-12-28T07:46:01.924Z,5.18
2022-12-28T07:47:05.786Z,5.15
2022-12-28T07:48:08.192Z,5.25
2022-12-28T07:49:11.523Z,6.25
2022-12-28T07:50:13.863Z,5.72
2022-12-28T07:51:19.389Z,5.15
2022-12-28T07:52:23.012Z,4.82
2022-12-28T07:53:25.416Z,4.83
2022-12-28T07:54:28.909Z,4.35
2022-12-28T07:55:32.354Z,4.35
2022-12-28T07:57:37.970Z,3.72
2022-12-28T07:59:44.601Z,4.57
2022-12-28T08:00:48.028Z,3.92
2022-12-28T08:01:52.869Z,3.75
2022-12-28T08:02:56.407Z,3.80
2022-12-28T08:04:02.055Z,5.40
2022-12-28T08:05:05.038Z,4.60
2022-12-28T08:06:11.263Z,4.53
2022-12-28T08:07:14.706Z,4.80
2022-12-28T08:08:17.076Z,4.43
2022-12-28T08:09:20.456Z,4.35
2022-12-28T08:10:22.862Z,5.07
2022-12-28T08:11:27.797Z,4.68
2022-12-28T08:12:31.514Z,4.35
2022-12-28T08:13:35.650Z,4.20
2022-12-28T08:14:40.581Z,4.40
2022-12-28T08:15:43.175Z,4.50
2022-12-28T08:16:46.612Z,5.28
2022-12-28T08:17:48.930Z,4.20
2022-12-28T08:18:53.077Z,4.50
2022-12-28T08:19:55.727Z,4.18
2022-12-28T08:21:03.001Z,5.78
2022-12-28T08:22:06.722Z,4.05
2022-12-28T08:23:09.115Z,3.60
2022-12-28T08:24:15.574Z,3.65
2022-12-28T08:25:17.998Z,3.73
2022-12-28T08:26:24.928Z,3.58
2022-12-28T08:27:32.240Z,3.70
2022-12-28T08:28:38.461Z,4.55
2022-12-28T08:29:43.130Z,4.18
2022-12-28T08:30:45.480Z,3.78
2022-12-28T08:31:49.766Z,4.43
2022-12-28T08:32:52.146Z,4.45
2022-12-28T08:33:57.528Z,4.15
2022-12-28T08:34:59.842Z,3.95
2022-12-28T08:36:03.524Z,4.10
2022-12-28T08:37:07.162Z,4.18
2022-12-28T08:38:09.953Z,4.75
2022-12-28T08:39:14.710Z,4.53
2022-12-28T08:40:17.155Z,4.30
2022-12-28T08:41:22.614Z,4.78
2022-12-28T08:42:24.916Z,4.25
2022-12-28T08:43:29.310Z,4.18
2022-12-28T08:44:32.736Z,4.60
2022-12-28T08:45:36.628Z,3.85
2022-12-28T08:46:41.303Z,5.10
2022-12-28T08:47:43.726Z,4.05
2022-12-28T08:48:48.809Z,4.30
2022-12-28T08:49:52.200Z,3.92
2022-12-28T08:50:55.407Z,4.20
2022-12-28T08:51:59.298Z,4.15
2022-12-28T08:53:01.573Z,3.97
2022-12-28T08:54:05.352Z,4.10
2022-12-28T08:55:09.617Z,3.63
2022-12-28T08:56:14.083Z,3.53
2022-12-28T08:57:17.833Z,4.07
2022-12-28T08:58:20.233Z,3.80
2022-12-28T08:59:23.452Z,3.92
2022-12-28T09:00:25.921Z,3.97
2022-12-28T09:01:35.889Z,3.25
2022-12-28T09:02:42.911Z,3.05
2022-12-28T09:03:50.289Z,2.88
2022-12-28T09:04:53.760Z,4.03
2022-12-28T09:05:56.051Z,4.00
2022-12-28T09:06:59.396Z,4.70
2022-12-28T09:08:01.786Z,4.30
2022-12-28T09:09:07.428Z,4.10
2022-12-28T09:10:11.224Z,3.72
2022-12-28T09:11:14.283Z,4.40
2022-12-28T09:12:17.954Z,4.50
2022-12-28T09:13:20.437Z,4.97
2022-12-28T09:14:24.717Z,4.50
2022-12-28T09:15:27.507Z,4.68
2022-12-28T09:16:32.641Z,5.13
2022-12-28T09:17:35.225Z,4.38
2022-12-28T09:18:39.663Z,5.23
2022-12-28T09:19:43.203Z,4.78
2022-12-28T09:20:48.026Z,6.30
2022-12-28T09:21:54.015Z,4.82
2022-12-28T09:22:56.317Z,5.32
2022-12-28T09:24:00.137Z,3.72
2022-12-28T09:25:03.477Z,4.68
2022-12-28T09:26:09.106Z,5.25
2022-12-28T09:27:12.830Z,5.00
2022-12-28T09:28:15.477Z,4.75
2022-12-28T09:29:18.924Z,4.97
2022-12-28T09:30:22.491Z,5.05
2022-12-28T09:31:26.966Z,5.28
2022-12-28T09:32:32.143Z,4.55
2022-12-28T09:34:33.843Z,5.53
2022-12-28T09:35:17.224Z,4.90
2022-12-28T09:36:19.679Z,4.10
2022-12-28T09:37:23.127Z,4.78
2022-12-28T09:38:25.904Z,4.57
2022-12-28T09:39:30.087Z,4.65
2022-12-28T09:40:34.951Z,5.27
2022-12-28T09:41:43.713Z,5.30
2022-12-28T09:42:46.106Z,4.85
2022-12-28T09:43:50.815Z,5.03
2022-12-28T09:45:00.641Z,4.53
2022-12-28T09:46:03.591Z,5.07
2022-12-28T09:47:17.531Z,4.45
2022-12-28T09:48:26.818Z,5.13
2022-12-28T09:49:40.002Z,4.82
2022-12-28T09:50:45.296Z,4.45
2022-12-28T09:51:53.292Z,4.20
2022-12-28T09:53:12.775Z,4.72
2022-12-28T09:54:16.151Z,5.20
2022-12-28T09:55:20.852Z,4.55
2022-12-28T09:56:28.913Z,4.93
2022-12-28T09:57:39.017Z,5.32
2022-12-28T09:58:47.915Z,5.65
2022-12-28T09:59:54.755Z,5.40
2022-12-28T10:01:00.531Z,6.00
2022-12-28T10:02:05.966Z,5.57
2022-12-28T10:03:17.076Z,6.33
2022-12-28T10:04:21.952Z,5.45
2022-12-28T10:05:28.083Z,6.10
2022-12-28T10:06:36.963Z,6.53
2022-12-28T10:07:39.472Z,6.03
2022-12-28T10:08:46.502Z,5.97
2022-12-28T10:09:50.133Z,6.90
2022-12-28T10:10:54.269Z,6.13
2022-12-28T10:11:57.788Z,7.03
2022-12-28T10:13:45.573Z,5.80
2022-12-28T10:14:38.515Z,6.83
2022-12-28T10:15:41.345Z,6.75
2022-12-28T10:16:48.621Z,6.50
2022-12-28T10:17:51.631Z,6.25
2022-12-28T10:18:55.668Z,7.05
2022-12-28T10:20:00.977Z,7.43
2022-12-28T10:21:03.381Z,6.95
2022-12-28T10:22:09.801Z,7.63
2022-12-28T10:23:18.084Z,7.22
2022-12-28T10:24:31.397Z,6.65
2022-12-28T10:25:35.069Z,6.57
2022-12-28T10:26:39.525Z,6.60
2022-12-28T10:27:42.997Z,6.10
2022-12-28T10:28:49.568Z,6.55
2022-12-28T10:29:52.907Z,6.97
2022-12-28T10:31:06.571Z,7.55
2022-12-28T10:32:12.723Z,6.75
2022-12-28T10:33:20.970Z,6.97
2022-12-28T10:34:24.559Z,7.40
2022-12-28T10:35:33.338Z,6.32
2022-12-28T10:36:36.768Z,8.20
2022-12-28T10:37:44.910Z,6.57
2022-12-28T10:38:53.418Z,7.57
2022-12-28T10:39:59.100Z,7.40
2022-12-28T10:41:05.254Z,7.72
2022-12-28T10:42:22.944Z,8.23
2022-12-28T10:43:30.493Z,8.55
2022-12-28T10:44:40.440Z,9.63
2022-12-28T10:46:01.219Z,7.93
2022-12-28T10:47:06.848Z,8.82
2022-12-28T10:48:16.441Z,8.10
2022-12-28T10:49:21.721Z,8.35
2022-12-28T10:50:57.827Z,7.97
2022-12-28T10:52:03.712Z,9.30
2022-12-28T10:53:16.864Z,7.80
2022-12-28T10:54:27.676Z,8.35
2022-12-28T10:55:34.224Z,9.00
2022-12-28T10:56:49.632Z,8.75
2022-12-28T10:58:27.512Z,9.20
2022-12-28T10:59:25.638Z,9.10
2022-12-28T11:00:29.378Z,9.70
2022-12-28T11:01:33.639Z,8.10
2022-12-28T11:02:36.608Z,9.60
2022-12-28T11:03:42.785Z,9.15
2022-12-28T11:04:54.116Z,8.55
2022-12-28T11:06:13.269Z,9.32
2022-12-28T11:07:29.022Z,8.68
2022-12-28T11:08:31.564Z,8.65
2022-12-28T11:09:36.704Z,9.20
2022-12-28T11:10:40.535Z,7.55
2022-12-28T11:11:45.680Z,10.07
2022-12-28T11:12:49.030Z,9.82
2022-12-28T11:13:57.070Z,9.27
2022-12-28T11:15:00.079Z,9.68
2022-12-28T11:16:08.052Z,9.52
2022-12-28T11:17:18.668Z,8.40
2022-12-28T11:18:21.677Z,10.02
2022-12-28T11:19:26.912Z,8.77
2022-12-28T11:20:34.279Z,9.77
2022-12-28T11:21:39.903Z,9.23
2022-12-28T11:22:42.410Z,9.53
2022-12-28T11:23:47.826Z,8.68
2022-12-28T11:24:50.711Z,8.65
2022-12-28T11:25:54.219Z,10.57
2022-12-28T11:26:58.960Z,8.70
2022-12-28T11:28:05.590Z,7.47
2022-12-28T11:29:12.206Z,9.18
2022-12-28T11:30:18.121Z,10.02
2022-12-28T11:31:29.193Z,9.13
2022-12-28T11:32:36.660Z,8.63
2022-12-28T11:33:43.390Z,8.27
2022-12-28T11:34:46.081Z,9.63
2022-12-28T11:35:52.557Z,8.43
2022-12-28T11:37:00.640Z,8.80
2022-12-28T11:38:05.788Z,9.15
2022-12-28T11:39:47.226Z,8.73
2022-12-28T11:40:52.467Z,8.98
2022-12-28T11:42:36.679Z,7.55
2022-12-28T11:43:40.323Z,9.48
2022-12-28T11:44:52.064Z,9.90
2022-12-28T11:45:56.274Z,8.53
2022-12-28T11:47:05.382Z,10.40
2022-12-28T11:48:42.182Z,11.18
2022-12-28T11:49:47.388Z,10.95
2022-12-28T11:50:52.183Z,9.63
2022-12-28T11:52:46.732Z,12.00
2022-12-28T11:54:00.100Z,10.43
2022-12-28T11:55:25.273Z,11.55
2022-12-28T11:56:50.506Z,11.43
2022-12-28T11:57:55.263Z,10.15
2022-12-28T11:59:23.598Z,9.70
2022-12-28T12:00:48.334Z,10.70
2022-12-28T12:01:54.142Z,10.70
2022-12-28T12:02:58.530Z,8.93
2022-12-28T12:04:39.189Z,9.93
2022-12-28T12:05:49.464Z,8.38
2022-12-28T12:07:15.913Z,8.57
2022-12-28T12:08:43.064Z,8.27
2022-12-28T12:09:49.047Z,9.30
2022-12-28T12:11:23.279Z,8.60
2022-12-28T12:12:37.507Z,9.50
2022-12-28T12:13:45.667Z,8.20
2022-12-28T12:14:50.908Z,7.75
2022-12-28T12:15:59.270Z,8.93
2022-12-28T12:17:05.824Z,8.30
2022-12-28T12:18:19.481Z,8.52
2022-12-28T12:19:27.058Z,9.10
2022-12-28T12:20:45.019Z,8.50
2022-12-28T12:22:00.381Z,8.43
2022-12-28T12:23:07.715Z,9.90
2022-12-28T12:24:26.812Z,8.30
2022-12-28T12:25:37.658Z,9.45
2022-12-28T12:26:47.716Z,9.55
2022-12-28T12:27:55.690Z,10.73
2022-12-28T12:29:05.422Z,10.10
2022-12-28T12:30:15.934Z,10.20
2022-12-28T12:31:29.856Z,10.40
2022-12-28T12:32:40.148Z,9.55
2022-12-28T12:33:48.755Z,9.80
2022-12-28T12:34:55.454Z,7.53
2022-12-28T12:36:06.286Z,7.63
2022-12-28T12:37:38.581Z,7.10
2022-12-28T12:38:58.309Z,6.80
2022-12-28T12:40:34.397Z,8.70
2022-12-28T12:41:50.659Z,7.15
2022-12-28T12:43:13.311Z,7.28
2022-12-28T12:44:24.259Z,8.07
2022-12-28T12:45:40.154Z,9.02
2022-12-28T12:47:09.970Z,7.85
2022-12-28T12:48:29.950Z,7.93
2022-12-28T12:49:57.365Z,8.10
2022-12-28T12:51:10.466Z,8.30
2022-12-28T12:52:27.396Z,8.32
2022-12-28T12:53:48.651Z,8.20
2022-12-28T12:55:06.250Z,7.60
2022-12-28T12:56:20.379Z,7.85
2022-12-28T12:57:36.720Z,8.85
2022-12-28T12:58:52.795Z,7.15
2022-12-28T13:00:15.074Z,6.90
2022-12-28T13:01:30.993Z,6.97
2022-12-28T13:02:59.899Z,6.63
2022-12-28T13:04:08.915Z,7.20
2022-12-28T13:05:17.574Z,8.43
2022-12-28T13:06:24.631Z,9.32
2022-12-28T13:07:28.565Z,9.75
2022-12-28T13:08:38.580Z,10.38
2022-12-28T13:09:43.673Z,10.68
2022-12-28T13:10:47.106Z,8.70
2022-12-28T13:11:51.071Z,7.82
2022-12-28T13:12:59.388Z,8.18
2022-12-28T13:14:02.943Z,6.43
2022-12-28T13:15:12.477Z,6.97
2022-12-28T13:16:19.080Z,6.07
2022-12-28T13:17:23.282Z,6.63
2022-12-28T13:19:50.686Z,6.68
2022-12-28T13:20:55.102Z,5.95
2022-12-28T13:21:59.322Z,6.13
2022-12-28T13:23:01.976Z,6.13
2022-12-28T13:24:06.138Z,6.45
2022-12-28T13:25:24.226Z,6.00
2022-12-28T13:26:30.565Z,6.75
2022-12-28T13:27:37.029Z,6.30
2022-12-28T13:28:51.471Z,6.60
2022-12-28T13:29:55.502Z,5.82
2022-12-28T13:31:11.103Z,6.93
2022-12-28T13:32:26.437Z,6.20
2022-12-28T13:33:30.760Z,4.85
2022-12-28T13:34:36.170Z,5.00
2022-12-28T13:35:38.972Z,6.00
2022-12-28T13:36:49.786Z,4.73
2022-12-28T13:38:04.130Z,5.47
2022-12-28T13:39:13.513Z,4.85
2022-12-28T13:40:19.297Z,5.10
2022-12-28T13:41:26.385Z,4.75
2022-12-28T13:42:36.763Z,4.85
2022-12-28T13:44:09.503Z,5.22
2022-12-28T13:45:16.764Z,4.55
2022-12-28T13:46:21.743Z,5.28
2022-12-28T13:47:29.437Z,5.25
2022-12-28T13:48:32.295Z,5.03
2022-12-28T13:49:40.652Z,4.38
2022-12-28T13:50:44.474Z,5.80
2022-12-28T13:51:53.080Z,5.45
2022-12-28T13:53:00.993Z,4.50
2022-12-28T13:54:03.880Z,4.63
2022-12-28T13:55:12.170Z,4.43
2022-12-28T13:56:18.144Z,5.28
2022-12-28T13:58:52.394Z,4.43
2022-12-28T13:59:57.388Z,5.80
2022-12-28T14:01:02.305Z,4.80
2022-12-28T14:02:06.489Z,4.30
2022-12-28T14:03:12.845Z,5.75
2022-12-28T14:04:51.670Z,5.72
2022-12-28T14:05:45.162Z,5.05
2022-12-28T14:06:47.857Z,5.80
2022-12-28T14:07:53.638Z,5.00
2022-12-28T14:09:02.248Z,4.40
2022-12-28T14:10:11.721Z,4.47
2022-12-28T14:11:14.641Z,5.57
2022-12-28T14:12:19.164Z,5.40
2022-12-28T14:13:22.287Z,5.60
2022-12-28T14:14:27.744Z,6.03
2022-12-28T14:15:39.002Z,5.35
2022-12-28T14:16:45.018Z,6.40
2022-12-28T14:17:49.644Z,5.72
2022-12-28T14:18:52.736Z,4.65
2022-12-28T14:19:58.667Z,5.65
2022-12-28T14:21:04.198Z,5.72
2022-12-28T14:22:31.698Z,5.30
2022-12-28T14:23:35.791Z,6.30
2022-12-28T14:25:03.642Z,5.13
2022-12-28T14:26:09.760Z,5.80
2022-12-28T14:27:18.124Z,6.80
2022-12-28T14:28:29.045Z,6.55
2022-12-28T14:29:36.050Z,5.15
2022-12-28T14:30:41.981Z,4.80
2022-12-28T14:31:46.020Z,6.35
2022-12-28T14:32:48.549Z,6.40
2022-12-28T14:33:54.381Z,6.20
2022-12-28T14:34:59.785Z,5.82
2022-12-28T14:36:04.683Z,6.25
2022-12-28T14:37:10.275Z,5.22
2022-12-28T14:38:19.072Z,5.40
2022-12-28T14:39:29.213Z,4.68
2022-12-28T14:40:35.333Z,7.30
2022-12-28T14:41:42.649Z,6.00
2022-12-28T14:42:51.798Z,6.50
2022-12-28T14:43:56.993Z,5.28
2022-12-28T14:46:07.486Z,6.10
2022-12-28T14:47:01.610Z,6.32
2022-12-28T14:48:19.057Z,6.40
2022-12-28T14:49:37.139Z,5.68
2022-12-28T14:50:57.280Z,6.30
2022-12-28T14:52:34.778Z,8.23
2022-12-28T14:53:38.249Z,6.03
2022-12-28T14:54:45.990Z,7.25
2022-12-28T14:55:59.558Z,6.53
2022-12-28T14:57:06.085Z,7.70
2022-12-28T14:58:22.361Z,6.40
2022-12-28T14:59:30.722Z,7.03
2022-12-28T15:00:36.546Z,5.88
2022-12-28T15:01:44.484Z,6.68